Airfield :
LOGIN :

Register | Disclaimer

   EN    FR    IT 

 










Legend :    VFR   Marginal VFR   IFR   Intensive IFR   Very Intensive IFR
Visi :
Ceiling :
>= 8 km
>= 3000ft
5 to 8 km
1000 to 3000 ft
1500m to 5 km
500 to 1000 ft
800 to 1500m
200 to 500 ft
< 800m
< 200 ft
Symbols :   Thunderstorms  Fog  Heavy snow  Heavy precipitations  Wind > 20 kt
SIGMETs :     Misc.  Thunderstorms  Icing  Turbulence  Mountain Waves  Volcanic Ashes






- Airport Elevation : 48 ft
- IATA code : PSR


LIBP - Abruzzo Pescara

CURRENT METAR :
  • 030220Z AUTO 21006KT 6000 NCD 02/01 Q1033

EXPIRED METARs :
  • 030150Z AUTO 21005KT 6000 NCD 02/01 Q1033
  • 030120Z AUTO 20006KT 6000 NCD 01/00 Q1033
  • 030050Z AUTO 22005KT 5000 BR NCD 02/01 Q1034
  • 030020Z AUTO 23004KT 5000 BR NCD 03/02 Q1034
  • 022350Z AUTO 21005KT 5000 BR NCD 02/01 Q1034

TAF TAF LIBP
Valid from the 03 at 00:00 until the 04 at 00:00 UTC


022300Z 0300/0324 VRB05KT CAVOK
TEMPO 0300/0308 3000 BR
TEMPO 0320/0324 3000 BR



MET'MAP, your aeronautical weather chart ! - Copyright ORBIFLY December 2007 - Disclaimer

ORBIFLY MET'MAP TEAM :

Programming & Development : Alexandra Zaïnal
Concept & original design : Baudouin d'Aumeries
Assistance for programming : Marc-Olivier Méhu
Technical & hardware support : Manuel Goepfert

Contact : metmap@orbifly.com




SOURCES & CREDITS :

   NOAA